Time;durP1;ratioP1;P1;durP2;ratioP2;P2;SDS_P1;SDS_P2;PMS_P1;PMS_P2;Temp;Humidity;BMP_temperature;BMP_pressure;BME280_temperature;BME280_humidity;BME280_pressure;Samples;Min_cycle;Max_cycle;Signal;HPM_P1;HPM_P2
2022/01/13 00:00:51;;;;;;;;;;;0.90;99.90;;;;;;5033243;28;19909;-66
2022/01/13 00:03:17;;;;;;;;;;;0.90;99.90;;;;;;5033845;28;19905;-67
2022/01/13 00:05:42;;;;;;;;;;;1.00;99.90;;;;;;5033786;28;19978;-67
2022/01/13 00:08:08;;;;;;;;;;;1.00;99.90;;;;;;5032787;28;19909;-67
2022/01/13 00:10:34;;;;;;;;;;;1.00;99.90;;;;;;5034085;28;19944;-67
2022/01/13 00:13:06;;;;;;;;;;;1.00;99.90;;;;;;5035970;28;19959;-68
2022/01/13 00:15:47;;;;;;;;;;;0.90;99.90;;;;;;5036317;28;20277;-68
2022/01/13 00:21:13;;;;;;;;;;;0.90;99.90;;;;;;5022348;28;19916;-66
2022/01/13 00:23:49;;;;;;;;;;;0.80;99.90;;;;;;5033602;28;19956;-67
2022/01/13 00:26:26;;;;;;;;;;;0.80;99.90;;;;;;5033699;28;19905;-66
2022/01/13 00:28:53;;;;;;;;;;;0.70;99.90;;;;;;5033525;28;19912;-67
2022/01/13 00:31:26;;;;;;;;;;;0.70;99.90;;;;;;5033080;28;19905;-67
2022/01/13 00:33:54;;;;;;;;;;;0.70;99.90;;;;;;5033425;28;19916;-66
2022/01/13 00:36:21;;;;;;;;;;;0.60;99.90;;;;;;5031958;28;19913;-66
2022/01/13 00:38:46;;;;;;;;;;;0.60;99.90;;;;;;5033279;28;19912;-66
2022/01/13 00:41:12;;;;;;;;;;;0.60;99.90;;;;;;5033164;28;19909;-66
2022/01/13 00:43:40;;;;;;;;;;;0.50;99.90;;;;;;5033118;28;20352;-67
2022/01/13 00:46:06;;;;;;;;;;;0.50;99.90;;;;;;5033364;28;19932;-66
2022/01/13 00:48:31;;;;;;;;;;;0.50;99.90;;;;;;5033138;28;19905;-66
2022/01/13 00:50:57;;;;;;;;;;;0.50;99.90;;;;;;5033192;28;20362;-67
2022/01/13 00:53:22;;;;;;;;;;;0.50;99.90;;;;;;5033133;28;19992;-66
2022/01/13 00:55:57;;;;;;;;;;;0.50;99.90;;;;;;5033098;28;20231;-67
2022/01/13 00:58:23;;;;;;;;;;;0.50;99.90;;;;;;5033835;28;19913;-67
2022/01/13 01:00:49;;;;;;;;;;;0.60;99.90;;;;;;5032994;28;19909;-66
2022/01/13 01:03:14;;;;;;;;;;;0.60;99.90;;;;;;5032834;28;20395;-66
2022/01/13 01:05:40;;;;;;;;;;;0.60;99.90;;;;;;5033645;28;19948;-65
2022/01/13 01:08:06;;;;;;;;;;;0.60;99.90;;;;;;5033415;28;19955;-65
2022/01/13 01:10:32;;;;;;;;;;;0.60;99.90;;;;;;5033626;28;19959;-66
2022/01/13 01:12:58;;;;;;;;;;;0.70;99.90;;;;;;5033544;28;20004;-66
2022/01/13 01:15:25;;;;;;;;;;;0.70;99.90;;;;;;5033087;28;19951;-67
2022/01/13 01:17:57;;;;;;;;;;;0.60;99.90;;;;;;5033581;28;20390;-67
2022/01/13 01:20:29;;;;;;;;;;;0.70;99.90;;;;;;5037099;28;19935;-67
2022/01/13 01:23:10;;;;;;;;;;;0.70;99.90;;;;;;5036737;28;19912;-66
2022/01/13 01:25:43;;;;;;;;;;;0.60;99.90;;;;;;5037130;28;19909;-66
2022/01/13 01:28:15;;;;;;;;;;;0.60;99.90;;;;;;5035176;28;19941;-67
2022/01/13 01:30:42;;;;;;;;;;;0.70;99.90;;;;;;5036870;28;20338;-66
2022/01/13 01:33:10;;;;;;;;;;;0.70;99.90;;;;;;5036239;28;19917;-66
2022/01/13 01:35:37;;;;;;;;;;;0.70;99.90;;;;;;5036286;28;19912;-67
2022/01/13 01:38:03;;;;;;;;;;;0.70;99.90;;;;;;5036622;28;19905;-67
2022/01/13 01:40:28;;;;;;;;;;;0.70;99.90;;;;;;5036273;28;19916;-66
2022/01/13 01:42:54;;;;;;;;;;;0.70;99.90;;;;;;5036230;28;19928;-67
2022/01/13 01:45:20;;;;;;;;;;;0.70;99.90;;;;;;5036341;28;19905;-67
2022/01/13 01:47:49;;;;;;;;;;;0.70;99.90;;;;;;5036486;28;20278;-66
2022/01/13 01:50:18;;;;;;;;;;;0.70;99.90;;;;;;5036852;28;19905;-66
2022/01/13 01:52:53;;;;;;;;;;;0.70;99.90;;;;;;5036025;28;19928;-67
2022/01/13 01:55:19;;;;;;;;;;;0.60;99.90;;;;;;5034739;28;19940;-66
2022/01/13 01:57:45;;;;;;;;;;;0.60;99.90;;;;;;5034668;28;20329;-66
2022/01/13 02:00:12;;;;;;;;;;;0.60;99.90;;;;;;5035866;28;19913;-67
2022/01/13 02:02:38;;;;;;;;;;;0.60;99.90;;;;;;5035821;28;20347;-66
2022/01/13 02:05:04;;;;;;;;;;;0.60;99.90;;;;;;5034756;28;19940;-66
2022/01/13 02:07:29;;;;;;;;;;;0.60;99.90;;;;;;5035945;28;19905;-67
2022/01/13 02:09:55;;;;;;;;;;;0.50;99.90;;;;;;5034390;28;19905;-67
2022/01/13 02:12:42;;;;;;;;;;;0.50;99.90;;;;;;5035969;28;19908;-67
2022/01/13 02:17:37;;;;;;;;;;;0.40;99.90;;;;;;5035445;28;19905;-66
2022/01/13 02:20:04;;;;;;;;;;;0.40;99.90;;;;;;5034078;28;19999;-67
2022/01/13 02:22:29;;;;;;;;;;;0.40;99.90;;;;;;5035604;28;19955;-68
2022/01/13 02:24:55;;;;;;;;;;;0.40;99.90;;;;;;5035522;28;20304;-68
2022/01/13 02:27:21;;;;;;;;;;;0.40;99.90;;;;;;5034967;28;19909;-67
2022/01/13 02:29:47;;;;;;;;;;;0.40;99.90;;;;;;5034666;28;20278;-66
2022/01/13 02:32:14;;;;;;;;;;;0.40;99.90;;;;;;5035089;28;19913;-66
2022/01/13 02:34:40;;;;;;;;;;;0.40;99.90;;;;;;5033899;28;19916;-66
2022/01/13 02:37:05;;;;;;;;;;;0.30;99.90;;;;;;5033878;28;19905;-67
2022/01/13 02:39:31;;;;;;;;;;;0.30;99.90;;;;;;5035052;28;19980;-66
2022/01/13 02:41:58;;;;;;;;;;;0.30;99.90;;;;;;5035519;28;20377;-67
2022/01/13 02:44:24;;;;;;;;;;;0.20;99.90;;;;;;5035427;28;20358;-67
2022/01/13 02:49:17;;;;;;;;;;;0.10;99.90;;;;;;5035682;28;19909;-67
2022/01/13 02:51:44;;;;;;;;;;;0.10;99.90;;;;;;5034961;28;19912;-66
2022/01/13 02:54:10;;;;;;;;;;;0.00;99.90;;;;;;5033597;28;19905;-67
2022/01/13 02:56:36;;;;;;;;;;;0.00;99.90;;;;;;5034846;28;19912;-68
2022/01/13 02:59:02;;;;;;;;;;;-0.10;99.90;;;;;;5035157;28;19908;-67
2022/01/13 03:01:28;;;;;;;;;;;-0.10;99.90;;;;;;5033271;28;19909;-66
2022/01/13 03:03:54;;;;;;;;;;;-0.10;99.90;;;;;;5033286;28;19912;-67
2022/01/13 03:06:24;;;;;;;;;;;-0.10;99.90;;;;;;5034617;28;19958;-66
2022/01/13 03:08:50;;;;;;;;;;;-0.10;99.90;;;;;;5035594;28;20297;-66
2022/01/13 03:11:16;;;;;;;;;;;-0.10;99.90;;;;;;5033131;28;19930;-66
2022/01/13 03:13:41;;;;;;;;;;;-0.10;99.90;;;;;;5033299;28;20358;-67
2022/01/13 03:16:08;;;;;;;;;;;0.00;99.90;;;;;;5034777;28;19984;-67
2022/01/13 03:18:34;;;;;;;;;;;0.00;99.90;;;;;;5034467;28;20366;-66
2022/01/13 03:20:59;;;;;;;;;;;0.00;99.90;;;;;;5034060;28;19916;-67
2022/01/13 03:23:25;;;;;;;;;;;0.00;99.90;;;;;;5032630;28;19909;-66
2022/01/13 03:25:50;;;;;;;;;;;0.00;99.90;;;;;;5034422;28;19909;-66
2022/01/13 03:28:27;;;;;;;;;;;-0.10;99.90;;;;;;5034270;28;20318;-67
2022/01/13 03:30:53;;;;;;;;;;;-0.10;99.90;;;;;;5034433;28;19992;-67
2022/01/13 03:33:18;;;;;;;;;;;-0.10;99.90;;;;;;5032673;28;19956;-67
2022/01/13 03:35:44;;;;;;;;;;;-0.20;99.90;;;;;;5034098;28;19905;-67
2022/01/13 03:38:09;;;;;;;;;;;-0.20;99.90;;;;;;5032898;28;19905;-67
2022/01/13 03:40:36;;;;;;;;;;;-0.20;99.90;;;;;;5034801;28;19916;-67
2022/01/13 03:43:01;;;;;;;;;;;-0.20;99.90;;;;;;5034102;28;19909;-67
2022/01/13 03:45:27;;;;;;;;;;;-0.20;99.90;;;;;;5034191;28;20303;-67
2022/01/13 03:47:53;;;;;;;;;;;-0.20;99.90;;;;;;5032609;28;19905;-66
2022/01/13 03:50:19;;;;;;;;;;;-0.20;99.90;;;;;;5034010;28;19919;-67
2022/01/13 03:52:57;;;;;;;;;;;-0.20;99.90;;;;;;5034305;28;20358;-67
2022/01/13 03:55:34;;;;;;;;;;;-0.20;99.90;;;;;;5032397;28;19905;-67
2022/01/13 03:58:15;;;;;;;;;;;-0.20;99.90;;;;;;5032691;28;19911;-67
2022/01/13 04:00:59;;;;;;;;;;;-0.30;99.90;;;;;;5032844;28;20033;-67
2022/01/13 04:03:25;;;;;;;;;;;-0.30;99.90;;;;;;5033825;28;19977;-67
2022/01/13 04:06:29;;;;;;;;;;;-0.30;99.90;;;;;;5034289;28;19992;-67
2022/01/13 04:08:54;;;;;;;;;;;-0.30;99.90;;;;;;5034193;28;19908;-66
2022/01/13 04:11:25;;;;;;;;;;;-0.30;99.90;;;;;;5033801;28;19995;-67
2022/01/13 04:13:56;;;;;;;;;;;-0.30;99.90;;;;;;5034027;28;19948;-67
2022/01/13 04:16:24;;;;;;;;;;;-0.40;99.90;;;;;;5034142;28;19995;-67
2022/01/13 04:18:50;;;;;;;;;;;-0.40;99.90;;;;;;5033827;28;19913;-67
2022/01/13 04:21:19;;;;;;;;;;;-0.40;99.90;;;;;;5033400;28;19984;-67
2022/01/13 04:23:44;;;;;;;;;;;-0.40;99.90;;;;;;5033641;28;19905;-66
2022/01/13 04:26:11;;;;;;;;;;;-0.50;99.90;;;;;;5033523;28;20035;-67
2022/01/13 04:28:40;;;;;;;;;;;-0.50;99.90;;;;;;5033758;28;19905;-66
2022/01/13 04:31:05;;;;;;;;;;;-0.60;99.90;;;;;;5033461;28;19909;-66
2022/01/13 04:33:31;;;;;;;;;;;-0.60;99.90;;;;;;5033456;28;19921;-67
2022/01/13 04:35:57;;;;;;;;;;;-0.70;99.90;;;;;;5033431;28;20000;-66
2022/01/13 04:38:23;;;;;;;;;;;-0.70;99.90;;;;;;5033407;28;20283;-67
2022/01/13 04:40:55;;;;;;;;;;;-0.70;99.90;;;;;;5033233;28;19909;-68
2022/01/13 04:43:20;;;;;;;;;;;-0.80;99.90;;;;;;5032424;28;19909;-67
2022/01/13 04:45:47;;;;;;;;;;;-0.70;99.90;;;;;;5033638;28;19927;-67
2022/01/13 04:48:13;;;;;;;;;;;-0.70;99.90;;;;;;5033659;28;19912;-67
2022/01/13 04:50:39;;;;;;;;;;;-0.70;99.90;;;;;;5033421;28;19905;-67
2022/01/13 04:53:05;;;;;;;;;;;-0.70;99.90;;;;;;5034195;28;19912;-66
2022/01/13 04:55:33;;;;;;;;;;;-0.70;99.90;;;;;;5035955;28;20290;-68
2022/01/13 04:57:59;;;;;;;;;;;-0.70;99.90;;;;;;5036724;28;19909;-68
2022/01/13 05:00:25;;;;;;;;;;;-0.80;99.90;;;;;;5037097;28;19909;-68
2022/01/13 05:02:51;;;;;;;;;;;-0.80;99.90;;;;;;5037510;28;19967;-68
2022/01/13 05:05:16;;;;;;;;;;;-0.70;99.90;;;;;;5036017;28;19905;-68
2022/01/13 05:07:42;;;;;;;;;;;-0.70;99.90;;;;;;5035635;28;19905;-67
2022/01/13 05:10:08;;;;;;;;;;;-0.70;99.90;;;;;;5035443;28;20366;-67
2022/01/13 05:12:40;;;;;;;;;;;-0.70;99.90;;;;;;5036619;28;20007;-68
2022/01/13 05:15:08;;;;;;;;;;;-0.80;99.90;;;;;;5036020;28;19955;-69
2022/01/13 05:17:59;;;;;;;;;;;-0.70;99.90;;;;;;5035527;28;19905;-68
2022/01/13 05:20:27;;;;;;;;;;;-0.70;99.90;;;;;;5036482;28;19920;-67
2022/01/13 05:22:53;;;;;;;;;;;-0.80;99.90;;;;;;5036419;28;19944;-67
2022/01/13 05:25:19;;;;;;;;;;;-0.80;99.90;;;;;;5037126;28;20336;-66
2022/01/13 05:27:47;;;;;;;;;;;-0.80;99.90;;;;;;5036990;28;19905;-63
2022/01/13 05:30:15;;;;;;;;;;;-0.80;99.90;;;;;;5036778;28;19911;-68
2022/01/13 05:32:41;;;;;;;;;;;-0.80;99.90;;;;;;5036423;28;20367;-63
2022/01/13 05:35:06;;;;;;;;;;;-0.80;99.90;;;;;;5035210;28;19912;-62
2022/01/13 05:37:32;;;;;;;;;;;-0.80;99.90;;;;;;5036433;28;20421;-62
2022/01/13 05:39:58;;;;;;;;;;;-0.80;99.90;;;;;;5036682;28;19908;-63
2022/01/13 05:42:23;;;;;;;;;;;-0.80;99.90;;;;;;5036414;28;20387;-63
2022/01/13 05:44:49;;;;;;;;;;;-0.80;99.90;;;;;;5036700;28;19905;-63
2022/01/13 05:47:15;;;;;;;;;;;-0.80;99.90;;;;;;5036555;28;19905;-62
2022/01/13 05:49:41;;;;;;;;;;;-0.80;99.90;;;;;;5036174;28;19909;-64
2022/01/13 05:52:07;;;;;;;;;;;-0.80;99.90;;;;;;5036249;28;19905;-62
2022/01/13 05:54:33;;;;;;;;;;;-0.80;99.90;;;;;;5036398;28;19905;-61
2022/01/13 05:56:58;;;;;;;;;;;-0.80;99.90;;;;;;5036654;28;19912;-62
2022/01/13 05:59:24;;;;;;;;;;;-0.80;99.90;;;;;;5036314;28;19968;-62
2022/01/13 06:01:50;;;;;;;;;;;-0.80;99.90;;;;;;5036074;28;19905;-63
2022/01/13 06:04:16;;;;;;;;;;;-0.80;99.90;;;;;;5035340;28;19941;-62
2022/01/13 06:06:41;;;;;;;;;;;-0.80;99.90;;;;;;5035385;28;19909;-65
2022/01/13 06:09:07;;;;;;;;;;;-0.80;99.90;;;;;;5034745;28;19944;-65
2022/01/13 06:11:42;;;;;;;;;;;-0.90;99.90;;;;;;5036269;28;20342;-65
2022/01/13 06:14:08;;;;;;;;;;;-0.80;99.90;;;;;;5036119;28;19943;-65
2022/01/13 06:16:33;;;;;;;;;;;-0.80;99.90;;;;;;5037133;28;19905;-67
2022/01/13 06:18:59;;;;;;;;;;;-0.80;99.90;;;;;;5037795;28;19948;-68
2022/01/13 06:21:25;;;;;;;;;;;-0.80;99.90;;;;;;5036331;28;19909;-68
2022/01/13 06:23:50;;;;;;;;;;;-0.80;99.90;;;;;;5034721;28;19917;-68
2022/01/13 06:26:16;;;;;;;;;;;-0.80;99.90;;;;;;5036413;28;19963;-67
2022/01/13 06:28:42;;;;;;;;;;;-0.80;99.90;;;;;;5036005;28;19912;-66
2022/01/13 06:31:08;;;;;;;;;;;-0.80;99.90;;;;;;5035581;28;19974;-69
2022/01/13 06:33:34;;;;;;;;;;;-0.80;99.90;;;;;;5034800;28;20015;-68
2022/01/13 06:36:03;;;;;;;;;;;-0.90;99.90;;;;;;5036728;28;19916;-69
2022/01/13 06:38:29;;;;;;;;;;;-0.80;99.90;;;;;;5036119;28;19915;-66
2022/01/13 06:40:56;;;;;;;;;;;-0.80;99.90;;;;;;5035500;28;19928;-66
2022/01/13 06:43:22;;;;;;;;;;;-0.90;99.90;;;;;;5035485;28;19905;-65
2022/01/13 06:45:47;;;;;;;;;;;-0.80;99.90;;;;;;5035443;28;19905;-65
2022/01/13 06:48:13;;;;;;;;;;;-0.80;99.90;;;;;;5035444;28;19944;-66
2022/01/13 06:50:38;;;;;;;;;;;-0.80;99.90;;;;;;5035518;28;19905;-66
2022/01/13 06:53:04;;;;;;;;;;;-0.80;99.90;;;;;;5035381;28;19905;-65
2022/01/13 06:55:29;;;;;;;;;;;-0.80;99.90;;;;;;5035124;28;19927;-68
2022/01/13 06:57:55;;;;;;;;;;;-0.80;99.90;;;;;;5033973;28;19906;-64
2022/01/13 07:00:22;;;;;;;;;;;-0.80;99.90;;;;;;5034672;28;19948;-65
2022/01/13 07:02:47;;;;;;;;;;;-0.80;99.90;;;;;;5034836;28;19905;-65
2022/01/13 07:05:13;;;;;;;;;;;-0.80;99.90;;;;;;5034957;28;20438;-65
2022/01/13 07:07:40;;;;;;;;;;;-0.80;99.90;;;;;;5034982;28;19905;-65
2022/01/13 07:10:07;;;;;;;;;;;-0.80;99.90;;;;;;5033704;28;19905;-64
2022/01/13 07:12:33;;;;;;;;;;;-0.80;99.90;;;;;;5035255;28;19995;-63
2022/01/13 07:14:58;;;;;;;;;;;-0.80;99.90;;;;;;5034877;28;19944;-63
2022/01/13 07:17:24;;;;;;;;;;;-0.80;99.90;;;;;;5034631;28;20274;-64
2022/01/13 07:19:51;;;;;;;;;;;-0.80;99.90;;;;;;5034567;28;19909;-65
2022/01/13 07:22:17;;;;;;;;;;;-0.80;99.90;;;;;;5034810;28;19905;-64
2022/01/13 07:24:42;;;;;;;;;;;-0.90;99.90;;;;;;5034592;28;19927;-63
2022/01/13 07:27:08;;;;;;;;;;;-0.90;99.90;;;;;;5034415;28;20333;-66
2022/01/13 07:29:33;;;;;;;;;;;-0.90;99.90;;;;;;5034386;28;20389;-64
2022/01/13 07:31:59;;;;;;;;;;;-1.00;99.90;;;;;;5032593;28;20004;-65
2022/01/13 07:34:25;;;;;;;;;;;-1.00;99.90;;;;;;5034487;28;19909;-64
2022/01/13 07:36:50;;;;;;;;;;;-1.00;99.90;;;;;;5034482;28;20357;-64
2022/01/13 07:39:16;;;;;;;;;;;-1.00;99.90;;;;;;5034332;28;19995;-64
2022/01/13 07:41:42;;;;;;;;;;;-1.00;99.90;;;;;;5034286;28;20066;-64
2022/01/13 07:44:08;;;;;;;;;;;-1.10;99.90;;;;;;5034646;28;19905;-64
2022/01/13 07:46:34;;;;;;;;;;;-1.10;99.90;;;;;;5034671;28;19912;-62
2022/01/13 07:49:00;;;;;;;;;;;-1.10;99.90;;;;;;5034297;28;19905;-63
2022/01/13 07:51:26;;;;;;;;;;;-1.00;99.90;;;;;;5034511;28;19995;-64
2022/01/13 07:53:51;;;;;;;;;;;-1.00;99.90;;;;;;5034157;28;19974;-63
2022/01/13 07:56:17;;;;;;;;;;;-1.00;99.90;;;;;;5034033;28;20354;-62
2022/01/13 07:58:44;;;;;;;;;;;-1.00;99.90;;;;;;5034343;28;19913;-65
2022/01/13 08:01:09;;;;;;;;;;;-0.90;99.90;;;;;;5034403;28;19995;-64
2022/01/13 08:03:35;;;;;;;;;;;-0.90;99.90;;;;;;5032828;28;19905;-65
2022/01/13 08:06:01;;;;;;;;;;;-0.90;99.90;;;;;;5034153;28;19905;-64
2022/01/13 08:08:27;;;;;;;;;;;-0.90;99.90;;;;;;5034702;28;19951;-62
2022/01/13 08:10:52;;;;;;;;;;;-0.90;99.90;;;;;;5034217;28;19905;-62
2022/01/13 08:13:18;;;;;;;;;;;-0.80;99.90;;;;;;5033879;28;19995;-62
2022/01/13 08:15:44;;;;;;;;;;;-0.80;99.90;;;;;;5032265;28;19995;-61
2022/01/13 08:20:53;;;;;;;;;;;-0.80;99.90;;;;;;5033804;28;19954;-60
2022/01/13 08:23:19;;;;;;;;;;;-0.80;99.90;;;;;;5034051;28;19909;-63
2022/01/13 08:25:44;;;;;;;;;;;-0.80;99.90;;;;;;5037830;28;19909;-63
2022/01/13 08:28:11;;;;;;;;;;;-0.70;99.90;;;;;;5036934;28;19912;-63
2022/01/13 08:30:37;;;;;;;;;;;-0.70;99.90;;;;;;5035890;28;19968;-64
2022/01/13 08:33:02;;;;;;;;;;;-0.60;99.90;;;;;;5036140;28;19956;-62
2022/01/13 08:35:28;;;;;;;;;;;-0.60;99.90;;;;;;5037108;28;19908;-62
2022/01/13 08:37:54;;;;;;;;;;;-0.60;99.90;;;;;;5037076;28;19905;-63
2022/01/13 08:40:19;;;;;;;;;;;-0.50;99.90;;;;;;5037141;28;19990;-63
2022/01/13 08:42:45;;;;;;;;;;;-0.40;99.90;;;;;;5037364;28;20366;-62
2022/01/13 08:45:11;;;;;;;;;;;-0.40;99.90;;;;;;5035563;28;20472;-63
2022/01/13 08:47:37;;;;;;;;;;;-0.30;99.90;;;;;;5034057;28;19905;-63
2022/01/13 08:50:05;;;;;;;;;;;-0.30;99.90;;;;;;5033530;28;19928;-61
2022/01/13 08:52:33;;;;;;;;;;;-0.20;99.90;;;;;;5033444;28;20031;-62
2022/01/13 08:54:59;;;;;;;;;;;-0.20;99.90;;;;;;5033633;28;19912;-60
2022/01/13 08:57:25;;;;;;;;;;;-0.10;99.90;;;;;;5033389;28;19905;-62
2022/01/13 08:59:51;;;;;;;;;;;0.00;99.90;;;;;;5033302;28;19908;-62
2022/01/13 09:02:16;;;;;;;;;;;0.00;99.90;;;;;;5032938;28;20389;-65
2022/01/13 09:04:42;;;;;;;;;;;0.10;99.90;;;;;;5033928;28;19905;-65
2022/01/13 09:07:07;;;;;;;;;;;0.20;99.90;;;;;;5031989;28;19905;-65
2022/01/13 09:09:33;;;;;;;;;;;0.20;99.90;;;;;;5033392;28;19905;-61
2022/01/13 09:12:00;;;;;;;;;;;0.30;99.90;;;;;;5033555;28;19940;-61
2022/01/13 09:14:27;;;;;;;;;;;0.30;99.90;;;;;;5031577;28;19905;-61
2022/01/13 09:16:53;;;;;;;;;;;0.40;99.90;;;;;;5033061;28;19951;-61
2022/01/13 09:19:19;;;;;;;;;;;0.50;99.90;;;;;;5032603;28;19905;-62
2022/01/13 09:21:46;;;;;;;;;;;0.50;99.90;;;;;;5032788;28;19952;-60
2022/01/13 09:24:13;;;;;;;;;;;0.60;99.90;;;;;;5032866;28;19920;-61
2022/01/13 09:26:39;;;;;;;;;;;0.70;99.90;;;;;;5032758;28;20266;-61
2022/01/13 09:29:05;;;;;;;;;;;0.70;99.90;;;;;;5033116;28;19905;-61
2022/01/13 09:31:32;;;;;;;;;;;0.80;99.90;;;;;;5033100;28;19962;-61
2022/01/13 09:33:57;;;;;;;;;;;0.90;99.90;;;;;;5033246;28;19905;-62
2022/01/13 09:36:23;;;;;;;;;;;1.00;99.90;;;;;;5032740;28;19905;-61
2022/01/13 09:38:48;;;;;;;;;;;1.10;99.90;;;;;;5032958;28;19905;-62
2022/01/13 09:41:14;;;;;;;;;;;1.10;99.90;;;;;;5036426;28;20289;-62
2022/01/13 09:43:42;;;;;;;;;;;1.20;99.90;;;;;;5036313;28;19959;-61
2022/01/13 09:46:08;;;;;;;;;;;1.30;99.90;;;;;;5036120;28;19909;-61
2022/01/13 09:48:33;;;;;;;;;;;1.40;99.90;;;;;;5036315;28;20281;-62
2022/01/13 09:50:59;;;;;;;;;;;1.50;99.90;;;;;;5036097;28;19978;-61
2022/01/13 09:53:25;;;;;;;;;;;1.60;99.90;;;;;;5035628;28;19974;-61
2022/01/13 09:55:51;;;;;;;;;;;1.60;99.90;;;;;;5035830;28;20262;-62
2022/01/13 09:58:17;;;;;;;;;;;1.70;99.90;;;;;;5036255;28;19912;-61
2022/01/13 10:00:43;;;;;;;;;;;2.00;99.90;;;;;;5035677;28;19909;-60
2022/01/13 10:03:12;;;;;;;;;;;2.20;99.90;;;;;;5035961;28;20370;-61
2022/01/13 10:05:46;;;;;;;;;;;2.50;99.90;;;;;;5036222;28;19905;-62
2022/01/13 10:08:12;;;;;;;;;;;2.70;99.90;;;;;;5036126;28;19994;-61
2022/01/13 10:10:37;;;;;;;;;;;2.90;99.90;;;;;;5035820;28;19909;-62
2022/01/13 10:13:09;;;;;;;;;;;3.10;99.90;;;;;;5035618;28;19905;-62
2022/01/13 10:18:36;;;;;;;;;;;3.40;99.90;;;;;;5035485;28;19951;-60
2022/01/13 10:21:09;;;;;;;;;;;3.50;99.90;;;;;;5035531;28;19913;-62
2022/01/13 10:23:34;;;;;;;;;;;3.80;99.90;;;;;;5035776;28;19912;-62
2022/01/13 10:26:08;;;;;;;;;;;3.80;99.90;;;;;;5036817;28;19912;-62
2022/01/13 10:28:33;;;;;;;;;;;3.90;99.90;;;;;;5036379;28;19905;-61
2022/01/13 10:30:59;;;;;;;;;;;4.00;99.90;;;;;;5036069;28;19909;-62
2022/01/13 10:33:25;;;;;;;;;;;4.20;99.90;;;;;;5035805;28;19917;-62
2022/01/13 10:35:53;;;;;;;;;;;4.30;99.90;;;;;;5034286;28;19905;-62
2022/01/13 10:38:20;;;;;;;;;;;4.40;99.90;;;;;;5035489;28;19939;-62
2022/01/13 10:40:51;;;;;;;;;;;4.70;99.90;;;;;;5036254;28;20266;-63
2022/01/13 10:43:21;;;;;;;;;;;4.80;99.90;;;;;;5035929;28;19954;-62
2022/01/13 10:45:52;;;;;;;;;;;4.80;99.90;;;;;;5034586;28;19912;-62
2022/01/13 10:48:19;;;;;;;;;;;4.80;99.90;;;;;;5034111;28;19966;-61
2022/01/13 10:50:50;;;;;;;;;;;4.90;99.90;;;;;;5034613;28;19905;-62
2022/01/13 10:53:26;;;;;;;;;;;5.00;99.90;;;;;;5035058;28;19905;-61
2022/01/13 10:55:59;;;;;;;;;;;5.00;99.90;;;;;;5035363;28;19913;-61
2022/01/13 10:58:29;;;;;;;;;;;4.90;99.90;;;;;;5035026;28;20002;-61
2022/01/13 11:00:56;;;;;;;;;;;4.90;99.90;;;;;;5035438;28;19936;-59
2022/01/13 11:03:23;;;;;;;;;;;5.00;99.90;;;;;;5035175;28;19932;-61
2022/01/13 11:05:51;;;;;;;;;;;4.90;99.90;;;;;;5035398;28;20253;-61
2022/01/13 11:08:22;;;;;;;;;;;5.00;99.90;;;;;;5034234;28;19992;-60
2022/01/13 11:10:49;;;;;;;;;;;5.10;99.90;;;;;;5033786;28;20363;-61
2022/01/13 11:13:18;;;;;;;;;;;5.20;99.90;;;;;;5034816;28;19905;-62
2022/01/13 11:15:49;;;;;;;;;;;5.20;99.90;;;;;;5034762;28;20370;-62
2022/01/13 11:18:16;;;;;;;;;;;5.20;99.90;;;;;;5034691;28;20342;-66
2022/01/13 11:20:41;;;;;;;;;;;5.20;99.90;;;;;;5034888;28;19917;-66
2022/01/13 11:23:07;;;;;;;;;;;5.10;99.90;;;;;;5035020;28;19985;-61
2022/01/13 11:25:42;;;;;;;;;;;5.00;99.90;;;;;;5035100;28;19905;-66
2022/01/13 11:28:08;;;;;;;;;;;4.90;99.90;;;;;;5034509;28;20389;-66
2022/01/13 11:30:34;;;;;;;;;;;4.70;99.90;;;;;;5033536;28;19920;-64
2022/01/13 11:33:01;;;;;;;;;;;4.60;99.90;;;;;;5032602;28;19913;-66
2022/01/13 11:35:30;;;;;;;;;;;4.50;99.90;;;;;;5034319;28;19905;-62
2022/01/13 11:37:56;;;;;;;;;;;4.50;99.90;;;;;;5034267;28;19905;-63
2022/01/13 11:40:27;;;;;;;;;;;4.50;99.90;;;;;;5034232;28;20333;-62
2022/01/13 11:42:54;;;;;;;;;;;4.40;99.90;;;;;;5034317;28;19996;-62
2022/01/13 11:45:20;;;;;;;;;;;4.40;99.90;;;;;;5034215;28;19944;-63
2022/01/13 11:47:46;;;;;;;;;;;4.30;99.90;;;;;;5034157;28;19905;-62
2022/01/13 11:50:19;;;;;;;;;;;4.30;99.90;;;;;;5034088;28;19909;-62
2022/01/13 11:52:52;;;;;;;;;;;4.30;99.90;;;;;;5034088;28;19905;-63
2022/01/13 11:55:18;;;;;;;;;;;4.30;99.90;;;;;;5034266;28;20010;-62
2022/01/13 11:57:44;;;;;;;;;;;4.20;99.90;;;;;;5034306;28;19912;-62
2022/01/13 12:00:22;;;;;;;;;;;4.30;99.90;;;;;;5034509;28;20286;-60
2022/01/13 12:02:47;;;;;;;;;;;4.20;99.90;;;;;;5033114;28;19905;-62
2022/01/13 12:05:16;;;;;;;;;;;4.20;99.90;;;;;;5033707;28;19927;-62
2022/01/13 12:07:43;;;;;;;;;;;4.20;99.90;;;;;;5034211;28;19915;-62
2022/01/13 12:10:11;;;;;;;;;;;4.20;99.90;;;;;;5034043;28;19951;-61
2022/01/13 12:12:37;;;;;;;;;;;4.30;99.90;;;;;;5033513;28;19932;-58
2022/01/13 12:15:18;;;;;;;;;;;4.40;99.90;;;;;;5033650;28;19905;-63
2022/01/13 12:17:45;;;;;;;;;;;4.40;99.90;;;;;;5033741;28;20251;-61
2022/01/13 12:20:20;;;;;;;;;;;4.50;99.90;;;;;;5033484;28;19913;-62
2022/01/13 12:22:55;;;;;;;;;;;4.50;99.90;;;;;;5033289;28;19905;-62
2022/01/13 12:25:21;;;;;;;;;;;4.60;99.90;;;;;;5033437;28;19959;-59
2022/01/13 12:27:48;;;;;;;;;;;4.70;99.90;;;;;;5033372;28;19905;-62
2022/01/13 12:30:22;;;;;;;;;;;4.70;99.90;;;;;;5033475;28;20324;-62
2022/01/13 12:32:53;;;;;;;;;;;4.80;99.90;;;;;;5033100;28;20457;-61
2022/01/13 12:35:21;;;;;;;;;;;4.80;99.90;;;;;;5033525;28;19991;-62
2022/01/13 12:38:03;;;;;;;;;;;4.90;99.90;;;;;;5033421;28;20397;-62
2022/01/13 12:40:34;;;;;;;;;;;4.80;99.90;;;;;;5033213;28;20370;-62
2022/01/13 12:43:12;;;;;;;;;;;4.90;99.90;;;;;;5033092;28;19905;-62
2022/01/13 12:45:37;;;;;;;;;;;4.90;99.90;;;;;;5033242;28;19962;-62
2022/01/13 12:48:09;;;;;;;;;;;4.90;99.90;;;;;;5033052;28;19991;-61
2022/01/13 12:50:39;;;;;;;;;;;4.90;99.90;;;;;;5033057;28;20302;-60
2022/01/13 12:53:07;;;;;;;;;;;4.90;99.90;;;;;;5033746;28;19905;-61
2022/01/13 12:55:33;;;;;;;;;;;5.00;99.90;;;;;;5033181;28;20362;-62
2022/01/13 12:57:59;;;;;;;;;;;5.00;99.90;;;;;;5033364;28;20001;-62
2022/01/13 13:00:25;;;;;;;;;;;5.00;99.90;;;;;;5032914;28;19945;-61
2022/01/13 13:03:05;;;;;;;;;;;5.10;99.90;;;;;;5032895;28;19921;-60
2022/01/13 13:05:37;;;;;;;;;;;5.10;99.90;;;;;;5033201;28;19906;-61
2022/01/13 13:08:03;;;;;;;;;;;5.10;99.90;;;;;;5031476;28;19912;-62
2022/01/13 13:10:29;;;;;;;;;;;5.20;99.90;;;;;;5032933;28;19932;-63
2022/01/13 13:12:55;;;;;;;;;;;5.20;99.90;;;;;;5031379;28;19996;-62
2022/01/13 13:17:49;;;;;;;;;;;5.30;99.90;;;;;;5037135;28;20003;-68
2022/01/13 13:20:24;;;;;;;;;;;5.20;99.90;;;;;;5036444;28;19917;-68
2022/01/13 13:22:51;;;;;;;;;;;5.20;99.90;;;;;;5036741;28;19905;-67
2022/01/13 13:25:29;;;;;;;;;;;5.20;99.90;;;;;;5036631;28;19905;-68
2022/01/13 13:27:55;;;;;;;;;;;5.20;99.90;;;;;;5035459;28;19936;-68
2022/01/13 13:30:21;;;;;;;;;;;5.20;99.90;;;;;;5035149;28;20366;-66
2022/01/13 13:32:47;;;;;;;;;;;5.30;99.90;;;;;;5036388;28;19920;-66
2022/01/13 13:35:14;;;;;;;;;;;5.30;99.90;;;;;;5036457;28;19909;-66
2022/01/13 13:37:45;;;;;;;;;;;5.30;99.90;;;;;;5036282;28;19905;-66
2022/01/13 13:40:21;;;;;;;;;;;5.30;99.90;;;;;;5036104;28;19909;-66
2022/01/13 13:43:06;;;;;;;;;;;5.30;99.90;;;;;;5036295;28;20042;-66
2022/01/13 13:45:32;;;;;;;;;;;5.40;99.90;;;;;;5034499;28;19939;-68
2022/01/13 13:47:58;;;;;;;;;;;5.40;99.90;;;;;;5036312;28;20243;-66
2022/01/13 13:50:24;;;;;;;;;;;5.40;99.90;;;;;;5036140;28;19991;-67
2022/01/13 13:53:06;;;;;;;;;;;5.40;99.90;;;;;;5036111;28;20334;-67
2022/01/13 13:55:32;;;;;;;;;;;5.40;99.90;;;;;;5035884;28;20358;-67
2022/01/13 13:57:58;;;;;;;;;;;5.40;99.90;;;;;;5034721;28;20328;-67
2022/01/13 14:00:26;;;;;;;;;;;5.40;99.90;;;;;;5034626;28;19963;-67
2022/01/13 14:02:53;;;;;;;;;;;5.40;99.90;;;;;;5035794;28;19945;-66
2022/01/13 14:05:21;;;;;;;;;;;5.40;99.90;;;;;;5034264;28;19928;-66
2022/01/13 14:07:49;;;;;;;;;;;5.40;99.90;;;;;;5035776;28;20332;-66
2022/01/13 14:10:16;;;;;;;;;;;5.40;99.90;;;;;;5035698;28;19952;-65
2022/01/13 14:12:48;;;;;;;;;;;5.50;99.90;;;;;;5035780;28;19909;-66
2022/01/13 14:15:30;;;;;;;;;;;5.50;99.90;;;;;;5035345;28;19912;-66
2022/01/13 14:18:16;;;;;;;;;;;5.40;99.90;;;;;;5035971;28;19913;-67
2022/01/13 14:20:44;;;;;;;;;;;5.40;99.90;;;;;;5035565;28;20316;-67
2022/01/13 14:23:10;;;;;;;;;;;5.40;99.90;;;;;;5035977;28;19905;-67
2022/01/13 14:25:37;;;;;;;;;;;5.40;99.90;;;;;;5034955;28;19958;-67
2022/01/13 14:28:06;;;;;;;;;;;5.40;99.90;;;;;;5034414;28;19916;-66
2022/01/13 14:30:34;;;;;;;;;;;5.40;99.90;;;;;;5035544;28;20345;-67
2022/01/13 14:33:20;;;;;;;;;;;5.40;99.90;;;;;;5036339;28;19913;-66
2022/01/13 14:35:58;;;;;;;;;;;5.40;99.90;;;;;;5034207;28;19953;-67
2022/01/13 14:38:32;;;;;;;;;;;5.40;99.90;;;;;;5035319;28;19905;-66
2022/01/13 14:40:58;;;;;;;;;;;5.40;99.90;;;;;;5035383;28;19909;-66
2022/01/13 14:43:23;;;;;;;;;;;5.40;99.90;;;;;;5035359;28;19911;-66